sensor_id;sensor_type;location;lat;lon;timestamp;P1;durP1;ratioP1;P2;durP2;ratioP2
53674;SDS011;39574;50.534;8.500;2023-04-16T00:04:35;10.0;;;6.1;;
53674;SDS011;39574;50.534;8.500;2023-04-16T00:09:35;10.4;;;6.2;;
53674;SDS011;39574;50.534;8.500;2023-04-16T00:14:33;10.4;;;6.2;;
53674;SDS011;39574;50.534;8.500;2023-04-16T00:19:32;11.2;;;6.4;;
53674;SDS011;39574;50.534;8.500;2023-04-16T00:24:35;11.1;;;6.4;;
53674;SDS011;39574;50.534;8.500;2023-04-16T00:29:30;11.8;;;6.8;;
53674;SDS011;39574;50.534;8.500;2023-04-16T00:34:29;11.9;;;6.9;;
53674;SDS011;39574;50.534;8.500;2023-04-16T00:39:28;11.9;;;7.0;;
53674;SDS011;39574;50.534;8.500;2023-04-16T00:44:27;12.4;;;7.4;;
53674;SDS011;39574;50.534;8.500;2023-04-16T00:49:26;12.3;;;7.3;;
53674;SDS011;39574;50.534;8.500;2023-04-16T00:54:25;12.2;;;7.2;;
53674;SDS011;39574;50.534;8.500;2023-04-16T00:59:23;11.8;;;7.0;;
53674;SDS011;39574;50.534;8.500;2023-04-16T01:04:22;11.0;;;6.7;;
53674;SDS011;39574;50.534;8.500;2023-04-16T01:09:21;11.1;;;6.7;;
53674;SDS011;39574;50.534;8.500;2023-04-16T01:19:19;11.6;;;6.9;;
53674;SDS011;39574;50.534;8.500;2023-04-16T01:24:18;11.4;;;7.0;;
53674;SDS011;39574;50.534;8.500;2023-04-16T01:29:17;11.2;;;7.0;;
53674;SDS011;39574;50.534;8.500;2023-04-16T01:34:16;11.3;;;7.1;;
53674;SDS011;39574;50.534;8.500;2023-04-16T01:39:15;11.7;;;7.2;;
53674;SDS011;39574;50.534;8.500;2023-04-16T01:44:14;12.0;;;7.1;;
53674;SDS011;39574;50.534;8.500;2023-04-16T01:49:12;12.1;;;7.3;;
53674;SDS011;39574;50.534;8.500;2023-04-16T01:54:11;12.2;;;7.7;;
53674;SDS011;39574;50.534;8.500;2023-04-16T01:59:15;13.1;;;7.8;;
53674;SDS011;39574;50.534;8.500;2023-04-16T02:04:09;13.3;;;7.9;;
53674;SDS011;39574;50.534;8.500;2023-04-16T02:14:07;13.2;;;7.6;;
53674;SDS011;39574;50.534;8.500;2023-04-16T02:19:06;12.7;;;7.6;;
53674;SDS011;39574;50.534;8.500;2023-04-16T02:29:04;12.7;;;7.7;;
53674;SDS011;39574;50.534;8.500;2023-04-16T02:34:03;12.0;;;7.6;;
53674;SDS011;39574;50.534;8.500;2023-04-16T02:39:02;12.5;;;8.0;;
53674;SDS011;39574;50.534;8.500;2023-04-16T02:44:00;13.3;;;8.1;;
53674;SDS011;39574;50.534;8.500;2023-04-16T02:53:59;14.1;;;8.8;;
53674;SDS011;39574;50.534;8.500;2023-04-16T02:58:57;14.6;;;9.0;;
53674;SDS011;39574;50.534;8.500;2023-04-16T03:03:57;14.8;;;9.2;;
53674;SDS011;39574;50.534;8.500;2023-04-16T03:08:55;15.1;;;9.6;;
53674;SDS011;39574;50.534;8.500;2023-04-16T03:13:54;14.5;;;9.2;;
53674;SDS011;39574;50.534;8.500;2023-04-16T03:18:54;14.0;;;9.0;;
53674;SDS011;39574;50.534;8.500;2023-04-16T03:23:51;14.3;;;9.1;;
53674;SDS011;39574;50.534;8.500;2023-04-16T03:28:51;14.2;;;9.1;;
53674;SDS011;39574;50.534;8.500;2023-04-16T03:33:50;14.2;;;8.9;;
53674;SDS011;39574;50.534;8.500;2023-04-16T03:38:49;13.6;;;8.6;;
53674;SDS011;39574;50.534;8.500;2023-04-16T03:43:48;12.8;;;8.0;;
53674;SDS011;39574;50.534;8.500;2023-04-16T03:48:46;11.9;;;7.7;;
53674;SDS011;39574;50.534;8.500;2023-04-16T03:53:46;10.6;;;7.2;;
53674;SDS011;39574;50.534;8.500;2023-04-16T03:58:45;9.9;;;6.7;;
53674;SDS011;39574;50.534;8.500;2023-04-16T04:03:48;9.6;;;6.5;;
53674;SDS011;39574;50.534;8.500;2023-04-16T04:13:42;9.5;;;6.4;;
53674;SDS011;39574;50.534;8.500;2023-04-16T04:18:40;10.1;;;6.7;;
53674;SDS011;39574;50.534;8.500;2023-04-16T04:23:40;11.0;;;7.2;;
53674;SDS011;39574;50.534;8.500;2023-04-16T04:28:38;11.4;;;7.6;;
53674;SDS011;39574;50.534;8.500;2023-04-16T04:33:37;13.0;;;8.5;;
53674;SDS011;39574;50.534;8.500;2023-04-16T04:38:36;13.7;;;8.6;;
53674;SDS011;39574;50.534;8.500;2023-04-16T04:43:35;14.0;;;8.6;;
53674;SDS011;39574;50.534;8.500;2023-04-16T04:48:34;14.2;;;8.9;;
53674;SDS011;39574;50.534;8.500;2023-04-16T04:53:32;13.5;;;8.5;;
53674;SDS011;39574;50.534;8.500;2023-04-16T04:58:32;13.1;;;8.3;;
53674;SDS011;39574;50.534;8.500;2023-04-16T05:03:30;13.4;;;8.3;;
53674;SDS011;39574;50.534;8.500;2023-04-16T05:08:29;12.9;;;8.0;;
53674;SDS011;39574;50.534;8.500;2023-04-16T05:13:29;12.4;;;7.8;;
53674;SDS011;39574;50.534;8.500;2023-04-16T05:18:27;11.7;;;7.6;;
53674;SDS011;39574;50.534;8.500;2023-04-16T05:23:26;12.5;;;8.0;;
53674;SDS011;39574;50.534;8.500;2023-04-16T05:28:25;12.9;;;8.2;;
53674;SDS011;39574;50.534;8.500;2023-04-16T05:33:24;12.6;;;8.1;;
53674;SDS011;39574;50.534;8.500;2023-04-16T05:38:23;11.8;;;7.6;;
53674;SDS011;39574;50.534;8.500;2023-04-16T05:43:23;11.7;;;7.8;;
53674;SDS011;39574;50.534;8.500;2023-04-16T05:48:21;12.7;;;8.2;;
53674;SDS011;39574;50.534;8.500;2023-04-16T05:53:20;13.7;;;8.8;;
53674;SDS011;39574;50.534;8.500;2023-04-16T05:58:19;15.1;;;9.5;;
53674;SDS011;39574;50.534;8.500;2023-04-16T06:03:18;17.0;;;10.2;;
53674;SDS011;39574;50.534;8.500;2023-04-16T06:08:17;17.4;;;10.8;;
53674;SDS011;39574;50.534;8.500;2023-04-16T06:13:15;17.6;;;11.0;;
53674;SDS011;39574;50.534;8.500;2023-04-16T06:18:14;16.7;;;10.4;;
53674;SDS011;39574;50.534;8.500;2023-04-16T06:23:13;17.8;;;10.9;;
53674;SDS011;39574;50.534;8.500;2023-04-16T06:28:12;17.8;;;11.0;;
53674;SDS011;39574;50.534;8.500;2023-04-16T06:33:11;17.6;;;11.2;;
53674;SDS011;39574;50.534;8.500;2023-04-16T06:38:10;17.4;;;11.2;;
53674;SDS011;39574;50.534;8.500;2023-04-16T06:43:09;17.6;;;11.3;;
53674;SDS011;39574;50.534;8.500;2023-04-16T06:48:08;17.7;;;11.2;;
53674;SDS011;39574;50.534;8.500;2023-04-16T06:53:07;17.4;;;11.1;;
53674;SDS011;39574;50.534;8.500;2023-04-16T06:58:06;16.4;;;10.7;;
53674;SDS011;39574;50.534;8.500;2023-04-16T07:03:05;16.3;;;10.4;;
53674;SDS011;39574;50.534;8.500;2023-04-16T07:08:03;16.1;;;10.3;;
53674;SDS011;39574;50.534;8.500;2023-04-16T07:18:02;16.7;;;10.3;;
53674;SDS011;39574;50.534;8.500;2023-04-16T07:23:00;16.5;;;10.3;;
53674;SDS011;39574;50.534;8.500;2023-04-16T07:32:59;16.9;;;10.7;;
53674;SDS011;39574;50.534;8.500;2023-04-16T07:37:57;16.9;;;10.8;;
53674;SDS011;39574;50.534;8.500;2023-04-16T07:47:55;18.7;;;11.8;;
53674;SDS011;39574;50.534;8.500;2023-04-16T07:52:54;18.9;;;12.0;;
53674;SDS011;39574;50.534;8.500;2023-04-16T08:02:56;18.9;;;12.0;;
53674;SDS011;39574;50.534;8.500;2023-04-16T08:07:51;19.3;;;11.7;;
53674;SDS011;39574;50.534;8.500;2023-04-16T08:12:49;18.4;;;11.3;;
53674;SDS011;39574;50.534;8.500;2023-04-16T08:17:48;18.6;;;11.4;;
53674;SDS011;39574;50.534;8.500;2023-04-16T08:22:48;18.2;;;11.6;;
53674;SDS011;39574;50.534;8.500;2023-04-16T08:27:47;18.3;;;11.8;;
53674;SDS011;39574;50.534;8.500;2023-04-16T08:32:48;18.1;;;11.5;;
53674;SDS011;39574;50.534;8.500;2023-04-16T08:37:45;18.7;;;12.0;;
53674;SDS011;39574;50.534;8.500;2023-04-16T08:42:45;18.0;;;11.5;;
53674;SDS011;39574;50.534;8.500;2023-04-16T08:47:44;17.8;;;11.7;;
53674;SDS011;39574;50.534;8.500;2023-04-16T08:52:43;17.9;;;11.6;;
53674;SDS011;39574;50.534;8.500;2023-04-16T08:57:46;18.2;;;11.3;;
53674;SDS011;39574;50.534;8.500;2023-04-16T09:02:39;18.6;;;12.1;;
53674;SDS011;39574;50.534;8.500;2023-04-16T09:07:39;17.6;;;11.5;;
53674;SDS011;39574;50.534;8.500;2023-04-16T09:12:39;18.5;;;12.3;;
53674;SDS011;39574;50.534;8.500;2023-04-16T09:17:41;17.4;;;11.6;;
53674;SDS011;39574;50.534;8.500;2023-04-16T09:22:36;16.5;;;10.7;;
53674;SDS011;39574;50.534;8.500;2023-04-16T09:27:35;15.9;;;10.5;;
53674;SDS011;39574;50.534;8.500;2023-04-16T09:32:34;15.1;;;10.1;;
53674;SDS011;39574;50.534;8.500;2023-04-16T09:37:33;16.3;;;10.8;;
